This is the latest recevied weather packets stored in our database for station/object KDEQ. If no packets are shown the sender has not sent any weather packets the latest 10 day(s).
| Time | Temp. | Humidity | Pressure | Rain* | Wind** | Luminosity | Snow |
|---|---|---|---|---|---|---|---|
| 1778019207 | 26.67° C | 69% | 1003.7 hPa | - | - | - | - |
| 1778018728 | 26.67° C | 69% | 1003.7 hPa | - | - | - | - |
| 1778018011 | 25.56° C | 74% | 1004.4 hPa | - | - | - | - |
| 1778017411 | 25.56° C | 74% | 1004.4 hPa | - | - | - | - |
| 1778016810 | 25.56° C | 74% | 1004.4 hPa | - | - | - | - |
| 1778016207 | 25.56° C | 74% | 1004.4 hPa | - | - | - | - |
| 1778015608 | 25.56° C | 74% | 1004.4 hPa | - | - | - | - |
| 1778015008 | 25.56° C | 74% | 1004.4 hPa | - | - | - | - |
| 1778014407 | 26.67° C | 69% | 1004.4 hPa | - | - | - | - |
| 1778013811 | 26.67° C | 69% | 1004.4 hPa | - | - | - | - |
| 1778013209 | 26.67° C | 69% | 1004.4 hPa | - | - | - | - |
| 1778012613 | 26.67° C | 69% | 1004.4 hPa | - | - | - | - |
| 1778012007 | 26.67° C | 69% | 1004.4 hPa | - | - | - | - |
| 1778011407 | 26.67° C | 69% | 1004.4 hPa | - | - | - | - |
| 1778010810 | 25° C | 78% | 1004.7 hPa | - | - | - | - |
| 1778010210 | 25° C | 78% | 1004.7 hPa | - | - | - | - |
| 1778009607 | 25° C | 78% | 1004.7 hPa | - | - | - | - |
| 1778009009 | 25° C | 78% | 1004.7 hPa | - | - | - | - |
| 1778008408 | 25° C | 78% | 1004.7 hPa | - | - | - | - |
| 1778007811 | 25° C | 78% | 1004.7 hPa | - | - | - | - |
| 1778007211 | 25.56° C | 74% | 1004.1 hPa | - | - | - | - |
| 1778006609 | 25.56° C | 74% | 1004.1 hPa | - | - | - | - |
| 1778006012 | 23.89° C | 78% | 1005.4 hPa | - | - | - | - |
| 1778005410 | 23.89° C | 78% | 1005.4 hPa | - | - | - | - |
| 1778004808 | 23.89° C | 78% | 1005.4 hPa | - | - | - | - |
* Rain since midnight (hover to see other rain measurements)
** Current wind speed in m/s (hover to see current wind gust speed)